Time;durP1;ratioP1;P1;durP2;ratioP2;P2;SDS_P1;SDS_P2;PMS_P1;PMS_P2;Temp;Humidity;BMP_temperature;BMP_pressure;BME280_temperature;BME280_humidity;BME280_pressure;Samples;Min_cycle;Max_cycle;Signal;HPM_P1;HPM_P2
2023/09/08 00:00:36;;;;;;;12.25;8.13;;;;;;;27.53;50.19;100981.59;5047811;28;20044;-68
2023/09/08 00:03:04;;;;;;;16.52;8.30;;;;;;;27.51;49.78;100986.06;5054227;28;20045;-68
2023/09/08 00:05:31;;;;;;;17.73;8.75;;;;;;;27.46;49.99;100986.53;5053935;28;20053;-68
2023/09/08 00:07:58;;;;;;;15.15;8.40;;;;;;;27.28;50.60;100991.56;5053382;28;20053;-68
2023/09/08 00:10:26;;;;;;;12.13;8.23;;;;;;;27.26;50.92;100988.34;5059534;28;20509;-68
2023/09/08 00:12:53;;;;;;;12.50;8.40;;;;;;;27.08;51.43;100994.16;5053681;28;20466;-67
2023/09/08 00:15:21;;;;;;;16.70;8.20;;;;;;;27.20;51.22;100995.69;5035224;28;20045;-68
2023/09/08 00:17:48;;;;;;;12.80;7.97;;;;;;;27.14;51.58;101001.00;5052863;28;20052;-68
2023/09/08 00:20:16;;;;;;;10.85;7.30;;;;;;;27.11;51.22;100996.16;5053592;28;20057;-67
2023/09/08 00:22:43;;;;;;;14.02;8.18;;;;;;;26.65;52.87;100992.91;5052844;28;20099;-69
2023/09/08 00:25:10;;;;;;;13.45;8.75;;;;;;;26.51;53.17;100993.84;5053161;28;20041;-67
2023/09/08 00:27:38;;;;;;;13.85;7.22;;;;;;;26.59;52.97;100986.91;5068791;28;20072;-67
2023/09/08 00:30:06;;;;;;;11.27;7.30;;;;;;;26.70;52.85;100991.69;5070052;28;20052;-68
2023/09/08 00:32:33;;;;;;;14.65;7.82;;;;;;;26.66;53.11;100994.50;5074212;28;20048;-68
2023/09/08 00:35:01;;;;;;;13.02;7.68;;;;;;;26.64;53.44;100996.94;5054721;28;20051;-67
2023/09/08 00:37:28;;;;;;;13.60;7.80;;;;;;;26.51;53.67;100988.19;5054244;28;20045;-68
2023/09/08 00:39:56;;;;;;;11.10;7.32;;;;;;;26.45;53.49;100984.19;5040456;28;20673;-67
2023/09/08 00:42:23;;;;;;;12.15;7.72;;;;;;;26.75;53.02;100988.41;5052214;28;20045;-68
2023/09/08 00:44:51;;;;;;;13.85;9.20;;;;;;;26.74;53.05;100990.44;5051635;28;20053;-67
2023/09/08 00:47:18;;;;;;;14.45;8.68;;;;;;;26.71;52.74;100987.66;5062254;28;20045;-67
2023/09/08 00:49:46;;;;;;;10.95;7.43;;;;;;;26.64;53.04;100982.81;5053680;28;20056;-67
2023/09/08 00:52:14;;;;;;;11.23;7.47;;;;;;;26.53;53.53;100985.75;5066367;28;20045;-67
2023/09/08 00:54:41;;;;;;;12.63;7.60;;;;;;;26.60;53.30;100988.53;5051525;28;20052;-67
2023/09/08 00:57:09;;;;;;;12.02;7.75;;;;;;;26.53;53.09;100984.94;5068482;28;20423;-67
2023/09/08 00:59:37;;;;;;;11.30;7.38;;;;;;;26.53;53.13;100993.41;5031135;28;20060;-67
2023/09/08 01:02:05;;;;;;;10.45;7.57;;;;;;;26.54;53.44;100989.34;5033450;28;20057;-69
2023/09/08 01:04:33;;;;;;;12.30;7.50;;;;;;;26.39;53.67;100987.88;5047917;28;20051;-68
2023/09/08 01:07:01;;;;;;;13.32;7.15;;;;;;;26.22;54.80;100998.03;5053059;28;20041;-68
2023/09/08 01:09:29;;;;;;;11.32;7.40;;;;;;;26.20;54.68;100999.69;5051870;28;20049;-68
2023/09/08 01:12:01;;;;;;;14.05;7.65;;;;;;;26.26;54.85;100989.53;5070755;28;20499;-68
2023/09/08 01:14:29;;;;;;;15.07;7.50;;;;;;;26.20;55.00;100985.56;5066084;28;20045;-68
2023/09/08 01:16:57;;;;;;;14.32;7.55;;;;;;;26.11;54.86;100985.22;5052830;28;20044;-67
2023/09/08 01:19:24;;;;;;;12.73;7.50;;;;;;;26.16;55.56;100990.44;5051823;28;20594;-69
2023/09/08 01:22:19;;;;;;;12.07;7.28;;;;;;;26.42;54.17;100982.19;5051577;28;20503;-69
2023/09/08 01:25:12;;;;;;;11.90;7.38;;;;;;;26.42;54.07;100979.38;5051712;28;20068;-68
2023/09/08 01:27:45;;;;;;;12.52;7.70;;;;;;;26.21;55.19;100990.00;5052778;28;20053;-67
2023/09/08 01:30:13;;;;;;;15.30;7.15;;;;;;;26.23;55.08;100981.91;5053651;28;20507;-68
2023/09/08 01:32:41;;;;;;;11.82;6.80;;;;;;;26.32;55.06;100985.09;5051496;28;20049;-69
2023/09/08 01:35:09;;;;;;;12.60;7.60;;;;;;;26.28;55.08;100979.47;5051804;28;20048;-68
2023/09/08 01:37:40;;;;;;;12.55;7.20;;;;;;;26.15;55.62;100988.84;5069819;28;20056;-68
2023/09/08 01:40:10;;;;;;;11.82;7.20;;;;;;;26.17;55.95;100987.19;5072558;28;20052;-68
2023/09/08 01:42:38;;;;;;;10.13;7.18;;;;;;;26.33;55.41;100975.38;5084499;28;20050;-68
2023/09/08 01:45:07;;;;;;;12.70;7.28;;;;;;;26.33;55.16;100987.50;5053342;28;20048;-68
2023/09/08 01:47:35;;;;;;;14.73;7.40;;;;;;;26.45;55.38;100987.00;5065820;28;20045;-68
2023/09/08 01:50:03;;;;;;;10.68;7.35;;;;;;;26.47;54.70;100978.91;5053920;28;20048;-67
2023/09/08 01:52:30;;;;;;;12.85;7.47;;;;;;;26.29;55.27;100983.09;5062822;28;20056;-68
2023/09/08 01:54:58;;;;;;;10.70;7.97;;;;;;;26.15;56.00;100992.44;5046371;28;20058;-68
2023/09/08 01:57:25;;;;;;;12.60;7.13;;;;;;;26.32;55.46;100990.72;5050843;28;20644;-67
2023/09/08 01:59:53;;;;;;;15.10;7.68;;;;;;;26.18;56.07;100988.81;5033454;28;20056;-68
2023/09/08 02:02:20;;;;;;;10.73;7.45;;;;;;;26.37;55.52;100984.66;5050628;28;20563;-68
2023/09/08 02:04:48;;;;;;;11.25;7.28;;;;;;;26.41;55.37;100977.75;5051464;28;20053;-67
2023/09/08 02:07:15;;;;;;;10.45;6.90;;;;;;;26.37;55.55;100979.81;5049748;28;20659;-67
2023/09/08 02:09:44;;;;;;;11.50;7.15;;;;;;;26.27;55.82;100980.69;5052281;28;20048;-67
2023/09/08 02:12:11;;;;;;;13.70;7.72;;;;;;;26.01;56.53;100984.03;5050589;28;20048;-67
2023/09/08 02:14:39;;;;;;;13.40;8.23;;;;;;;26.11;56.08;100991.69;5051595;28;20049;-67
2023/09/08 02:17:07;;;;;;;14.80;7.38;;;;;;;25.96;56.55;100994.97;5051120;28;20048;-68
2023/09/08 02:19:34;;;;;;;11.68;6.82;;;;;;;25.85;57.05;101002.66;5050109;28;20514;-68
2023/09/08 02:22:02;;;;;;;15.13;6.65;;;;;;;25.86;57.22;101002.25;5044344;28;20049;-68
2023/09/08 02:24:30;;;;;;;12.10;7.30;;;;;;;25.99;57.11;100997.75;5062803;28;20054;-68
2023/09/08 02:26:58;;;;;;;12.95;7.43;;;;;;;25.94;56.76;100995.38;5043616;28;20056;-67
2023/09/08 02:29:25;;;;;;;11.18;7.22;;;;;;;25.97;56.62;100999.38;5061034;28;20049;-68
2023/09/08 02:31:53;;;;;;;10.32;6.85;;;;;;;25.87;57.17;101003.06;5038644;28;20071;-67
2023/09/08 02:34:20;;;;;;;11.57;6.95;;;;;;;25.98;56.57;101010.25;5051751;28;20052;-68
2023/09/08 02:36:48;;;;;;;11.73;7.00;;;;;;;26.01;57.01;101008.63;5044765;28;20045;-67
2023/09/08 02:39:16;;;;;;;12.68;7.05;;;;;;;26.13;56.65;101011.84;5050326;28;20534;-68
2023/09/08 02:41:44;;;;;;;11.73;6.57;;;;;;;26.07;56.78;101010.66;5051831;28;20068;-67
2023/09/08 02:44:11;;;;;;;12.52;7.03;;;;;;;25.94;57.00;101003.03;5050690;28;20603;-67
2023/09/08 02:46:38;;;;;;;9.85;6.32;;;;;;;25.89;56.87;101004.25;5065405;28;20491;-68
2023/09/08 02:49:06;;;;;;;10.15;6.80;;;;;;;25.80;56.96;101000.28;5053544;28;20063;-68
2023/09/08 02:51:33;;;;;;;13.30;6.40;;;;;;;25.82;57.39;101000.66;5066476;28;20052;-68
2023/09/08 02:54:01;;;;;;;10.43;6.43;;;;;;;25.75;57.26;101001.47;5049328;28;20045;-67
2023/09/08 02:56:28;;;;;;;11.25;6.43;;;;;;;25.95;56.73;101008.25;5042025;28;20045;-67
2023/09/08 02:58:56;;;;;;;11.65;6.50;;;;;;;25.89;56.79;101007.06;5051645;28;20049;-67
2023/09/08 03:01:23;;;;;;;10.75;6.53;;;;;;;25.90;57.09;101011.50;5049958;28;20547;-68
2023/09/08 03:03:51;;;;;;;10.25;6.57;;;;;;;25.88;57.13;101010.31;5050139;28;20071;-67
2023/09/08 03:06:20;;;;;;;13.57;7.07;;;;;;;25.71;57.23;101012.00;5029960;28;20431;-68
2023/09/08 03:08:49;;;;;;;10.60;6.10;;;;;;;25.59;58.20;101015.28;5053591;28;20072;-68
2023/09/08 03:11:16;;;;;;;14.35;6.57;;;;;;;25.61;57.82;101009.22;5051630;28;20045;-68
2023/09/08 03:13:43;;;;;;;12.18;7.43;;;;;;;25.61;57.97;101012.03;5053321;28;20049;-68
2023/09/08 03:16:11;;;;;;;11.63;7.00;;;;;;;25.55;58.39;101008.81;5035291;28;20045;-68
2023/09/08 03:18:38;;;;;;;13.30;7.15;;;;;;;25.59;58.04;101009.63;5035471;28;20404;-67
2023/09/08 03:21:09;;;;;;;12.07;6.88;;;;;;;25.53;59.06;100999.97;5034064;28;20057;-67
2023/09/08 03:23:38;;;;;;;12.57;6.43;;;;;;;25.37;59.06;101006.06;5037068;28;20064;-68
2023/09/08 03:26:07;;;;;;;8.88;6.45;;;;;;;25.58;59.04;100995.94;5053171;28;20053;-67
2023/09/08 03:28:35;;;;;;;14.07;6.60;;;;;;;25.78;58.24;100997.88;5056347;28;20048;-67
2023/09/08 03:31:03;;;;;;;10.85;6.72;;;;;;;25.65;58.11;100996.69;5075271;28;20056;-68
2023/09/08 03:33:33;;;;;;;15.25;7.20;;;;;;;25.58;58.79;101000.34;5073539;28;20056;-68
2023/09/08 03:36:01;;;;;;;11.18;6.85;;;;;;;25.54;58.57;101002.38;5059561;28;20052;-67
2023/09/08 03:38:29;;;;;;;11.45;6.43;;;;;;;25.71;58.22;100995.06;5061925;28;20041;-68
2023/09/08 03:40:57;;;;;;;13.18;6.97;;;;;;;25.58;58.35;100998.75;5035273;28;20041;-67
2023/09/08 03:43:25;;;;;;;12.18;6.53;;;;;;;25.48;58.85;101003.19;5053076;28;20049;-67
2023/09/08 03:45:52;;;;;;;12.82;7.60;;;;;;;25.49;59.03;100996.34;5063546;28;20048;-67
2023/09/08 03:48:23;;;;;;;13.18;7.40;;;;;;;25.53;58.93;101006.41;5073483;28;20067;-68
2023/09/08 03:50:50;;;;;;;12.52;7.25;;;;;;;25.40;59.40;101004.44;5066661;28;21088;-67
2023/09/08 03:53:18;;;;;;;12.80;7.10;;;;;;;25.47;59.52;100996.75;5041316;28;20045;-67
2023/09/08 03:55:46;;;;;;;12.68;6.90;;;;;;;25.62;59.03;100999.53;5057745;28;20604;-66
2023/09/08 03:58:15;;;;;;;10.82;7.28;;;;;;;25.57;58.28;100995.13;5073537;28;20040;-67
2023/09/08 04:00:43;;;;;;;12.90;8.30;;;;;;;25.50;57.94;100995.13;5073003;28;20057;-68
2023/09/08 04:03:11;;;;;;;11.82;7.22;;;;;;;25.55;58.63;100998.34;5051667;28;20040;-67
2023/09/08 04:05:38;;;;;;;20.75;8.15;;;;;;;25.53;58.87;100986.66;5040718;28;20045;-67
2023/09/08 04:08:06;;;;;;;12.77;7.32;;;;;;;25.52;59.08;100987.84;5061742;28;20779;-67
2023/09/08 04:10:33;;;;;;;11.27;7.00;;;;;;;25.58;58.11;100986.25;5059589;28;20055;-69
2023/09/08 04:13:00;;;;;;;12.57;7.50;;;;;;;25.44;58.38;100991.94;5060653;28;20045;-69
2023/09/08 04:15:28;;;;;;;14.20;7.20;;;;;;;25.54;58.62;100984.66;5050161;28;20411;-69
2023/09/08 04:17:57;;;;;;;17.15;8.07;;;;;;;25.59;58.37;100981.41;5049461;28;20050;-68
2023/09/08 04:20:25;;;;;;;15.32;8.43;;;;;;;25.40;57.89;100984.69;5049635;28;20048;-67
2023/09/08 04:22:53;;;;;;;12.82;7.47;;;;;;;25.31;59.01;100992.75;5054017;28;20049;-69
2023/09/08 04:25:21;;;;;;;12.07;7.85;;;;;;;25.36;58.35;100989.50;5035268;28;20064;-68
2023/09/08 04:27:49;;;;;;;16.23;7.85;;;;;;;25.46;58.68;100988.69;5040668;28;20057;-68
2023/09/08 04:30:17;;;;;;;14.05;7.93;;;;;;;25.30;58.88;100991.94;5070435;28;20059;-68
2023/09/08 04:32:45;;;;;;;18.60;8.68;;;;;;;25.36;58.91;100993.16;5089102;28;20044;-68
2023/09/08 04:35:12;;;;;;;15.70;8.07;;;;;;;25.47;58.64;100990.31;5035991;28;20061;-68
2023/09/08 04:37:40;;;;;;;17.38;7.95;;;;;;;25.14;58.49;100993.59;5054632;28;20045;-69
2023/09/08 04:40:08;;;;;;;14.45;7.13;;;;;;;25.04;58.56;100988.75;5053079;28;20056;-68
2023/09/08 04:42:36;;;;;;;17.35;7.72;;;;;;;24.93;58.68;100988.75;5052355;28;20051;-68
2023/09/08 04:45:04;;;;;;;18.10;8.00;;;;;;;24.89;59.04;100987.16;5038669;28;20389;-68
2023/09/08 04:47:33;;;;;;;15.27;7.97;;;;;;;24.95;59.07;100997.63;5048217;28;20060;-68
2023/09/08 04:50:00;;;;;;;19.20;8.18;;;;;;;24.85;59.51;100994.81;5051716;28;20053;-68
2023/09/08 04:52:28;;;;;;;20.83;7.57;;;;;;;24.96;58.74;100989.97;5063060;28;20051;-69
2023/09/08 04:54:56;;;;;;;18.75;7.50;;;;;;;24.89;59.27;100993.63;5068210;28;20060;-67
2023/09/08 04:57:24;;;;;;;16.58;7.68;;;;;;;25.05;58.96;100988.38;5065545;28;20053;-68
2023/09/08 04:59:56;;;;;;;12.65;7.68;;;;;;;24.76;59.12;100991.63;5047943;28;20045;-68
2023/09/08 05:02:24;;;;;;;22.65;8.02;;;;;;;24.64;59.27;100995.59;5052621;28;20053;-68
2023/09/08 05:04:52;;;;;;;16.73;7.75;;;;;;;24.86;59.26;100990.81;5052011;28;20045;-67
2023/09/08 05:07:19;;;;;;;14.88;7.85;;;;;;;24.71;59.08;101004.06;5067955;28;20048;-69
2023/09/08 05:09:47;;;;;;;17.42;7.78;;;;;;;24.69;59.53;101000.84;5067860;28;20601;-67
2023/09/08 05:12:15;;;;;;;15.70;7.40;;;;;;;24.71;59.59;101000.44;5045914;28;20064;-68
2023/09/08 05:14:45;;;;;;;18.98;8.32;;;;;;;24.64;59.81;101000.41;5035429;28;20123;-68
2023/09/08 05:17:12;;;;;;;17.63;7.68;;;;;;;24.68;59.67;100995.59;5038193;28;20045;-68
2023/09/08 05:19:40;;;;;;;15.70;7.50;;;;;;;24.69;59.95;100995.22;5047302;28;20488;-68
2023/09/08 05:22:07;;;;;;;19.92;8.65;;;;;;;24.89;59.89;100995.63;5043272;28;20044;-68
2023/09/08 05:24:35;;;;;;;15.73;7.72;;;;;;;24.73;59.54;101003.66;5051915;28;20535;-69
2023/09/08 05:27:04;;;;;;;13.63;8.10;;;;;;;24.75;60.06;101001.25;5050468;28;20439;-68
2023/09/08 05:29:32;;;;;;;13.60;7.63;;;;;;;24.81;59.24;101006.09;5061436;28;20520;-67
2023/09/08 05:31:59;;;;;;;18.00;7.88;;;;;;;24.81;59.22;101008.91;5051178;28;20053;-68
2023/09/08 05:34:26;;;;;;;15.57;8.27;;;;;;;24.82;59.37;101010.53;5050161;28;20053;-68
2023/09/08 05:36:54;;;;;;;14.48;7.95;;;;;;;24.78;59.34;101009.72;5046840;28;20053;-67
2023/09/08 05:39:22;;;;;;;20.10;7.95;;;;;;;24.68;59.62;101013.31;5071382;28;20045;-67
2023/09/08 05:41:49;;;;;;;19.75;8.13;;;;;;;24.66;59.86;101000.81;5054802;28;20052;-68
2023/09/08 05:44:18;;;;;;;18.38;7.57;;;;;;;24.78;59.45;101011.72;5050346;28;20622;-68
2023/09/08 05:46:46;;;;;;;17.17;7.93;;;;;;;24.82;59.14;101012.53;5036971;28;20049;-67
2023/09/08 05:49:14;;;;;;;17.27;7.78;;;;;;;24.88;59.48;101008.13;5041942;28;20033;-67
2023/09/08 05:51:42;;;;;;;15.82;7.35;;;;;;;24.96;59.99;101013.34;5034747;28;20052;-67
2023/09/08 05:54:10;;;;;;;20.15;8.05;;;;;;;24.96;59.80;101010.53;5049111;28;20049;-69
2023/09/08 05:56:38;;;;;;;15.57;7.57;;;;;;;24.97;59.39;101012.13;5018276;28;20049;-67
2023/09/08 05:59:05;;;;;;;22.23;8.63;;;;;;;24.77;59.45;101015.75;5042962;28;20404;-69
2023/09/08 06:01:33;;;;;;;22.80;7.93;;;;;;;24.93;60.23;101018.97;5052496;28;20055;-68
2023/09/08 06:04:02;;;;;;;18.20;7.97;;;;;;;24.90;59.50;101012.13;5051051;28;20085;-67
2023/09/08 06:06:32;;;;;;;16.25;7.47;;;;;;;24.76;59.30;101020.56;5064099;28;20055;-69
2023/09/08 06:08:59;;;;;;;20.27;8.82;;;;;;;24.87;59.97;101023.41;5050597;28;20051;-68
2023/09/08 06:11:28;;;;;;;15.93;8.15;;;;;;;24.86;59.60;101024.63;5057933;28;20057;-68
2023/09/08 06:13:58;;;;;;;31.90;16.50;;;;;;;24.99;59.33;101011.72;5052196;28;20061;-68
2023/09/08 06:16:29;;;;;;;26.45;16.40;;;;;;;25.03;59.29;101023.81;5067323;28;20068;-68
2023/09/08 06:18:56;;;;;;;24.83;9.52;;;;;;;25.13;59.82;101020.16;5049770;28;20048;-67
2023/09/08 06:21:24;;;;;;;27.38;8.98;;;;;;;24.88;59.69;101025.81;5050897;28;20414;-70
2023/09/08 06:23:52;;;;;;;17.45;8.82;;;;;;;25.00;59.82;101021.78;5050796;28;20404;-69
2023/09/08 06:26:19;;;;;;;22.15;9.07;;;;;;;24.85;60.22;101015.34;5048508;28;20059;-69
2023/09/08 06:28:47;;;;;;;19.33;9.35;;;;;;;24.78;60.72;101020.97;5041635;28;20036;-67
2023/09/08 06:31:15;;;;;;;18.38;9.27;;;;;;;24.91;60.38;101024.22;5047769;28;20045;-69
2023/09/08 06:33:43;;;;;;;26.20;9.63;;;;;;;24.81;60.48;101020.16;5017937;28;20053;-70
2023/09/08 06:36:11;;;;;;;23.70;9.02;;;;;;;24.90;60.83;101025.41;5053666;28;20059;-69
2023/09/08 06:38:51;;;;;;;23.77;9.27;;;;;;;25.17;60.43;101026.59;5046495;28;20412;-68
2023/09/08 06:41:19;;;;;;;18.42;9.10;;;;;;;25.07;59.51;101028.22;5050445;28;20044;-69
2023/09/08 06:43:46;;;;;;;17.67;8.77;;;;;;;25.26;60.12;101032.66;5046355;28;20053;-69
2023/09/08 06:46:19;;;;;;;20.67;9.27;;;;;;;25.28;59.72;101033.03;5056131;28;20087;-68
2023/09/08 06:48:47;;;;;;;22.10;8.75;;;;;;;25.19;59.69;101032.66;5058632;28;20056;-68
2023/09/08 06:51:15;;;;;;;20.25;8.10;;;;;;;25.29;59.66;101031.81;5044481;28;20687;-68
2023/09/08 06:53:44;;;;;;;34.10;9.05;;;;;;;25.38;58.70;101038.69;5047813;28;20044;-69
2023/09/08 06:56:12;;;;;;;21.15;9.55;;;;;;;25.44;59.20;101036.25;5064092;28;20387;-68
2023/09/08 06:58:39;;;;;;;31.58;19.55;;;;;;;25.66;58.58;101037.81;5047875;28;20045;-67
2023/09/08 07:01:07;;;;;;;28.00;11.75;;;;;;;25.78;57.91;101036.56;5047652;28;20056;-68
2023/09/08 07:03:36;;;;;;;24.83;10.05;;;;;;;25.75;57.61;101035.34;5034465;28;20053;-67
2023/09/08 07:06:07;;;;;;;18.42;9.13;;;;;;;25.76;57.68;101039.78;5042986;28;20182;-65
2023/09/08 07:08:35;;;;;;;20.55;9.20;;;;;;;25.90;58.20;101036.09;5041217;28;20052;-64
2023/09/08 07:11:03;;;;;;;16.48;8.32;;;;;;;25.90;57.76;101038.94;5046846;28;20064;-66
2023/09/08 07:13:31;;;;;;;20.15;8.70;;;;;;;26.00;57.26;101036.06;5026615;28;20050;-65
2023/09/08 07:15:59;;;;;;;26.45;8.80;;;;;;;26.05;56.88;101044.13;5046308;28;20052;-64
2023/09/08 07:18:27;;;;;;;25.48;8.43;;;;;;;26.10;56.49;101035.22;5047955;28;20045;-65
2023/09/08 07:20:55;;;;;;;22.23;8.60;;;;;;;26.24;56.06;101040.81;5042796;28;20082;-64
2023/09/08 07:23:23;;;;;;;19.45;8.35;;;;;;;26.23;56.02;101039.22;5037056;28;20049;-63
2023/09/08 07:25:51;;;;;;;23.52;8.20;;;;;;;26.14;56.41;101038.84;5047429;28;20064;-65
2023/09/08 07:28:22;;;;;;;22.02;9.02;;;;;;;26.29;56.27;101045.22;5054286;28;20053;-66
2023/09/08 07:30:52;;;;;;;19.30;7.70;;;;;;;26.38;55.78;101040.72;5041878;28;20050;-65
2023/09/08 07:33:22;;;;;;;32.13;8.68;;;;;;;26.40;56.19;101041.13;5044138;28;20049;-65
2023/09/08 07:35:50;;;;;;;31.00;8.20;;;;;;;26.55;55.45;101045.44;5051821;28;20068;-65
2023/09/08 07:38:18;;;;;;;28.58;8.80;;;;;;;26.57;54.74;101045.84;5053776;28;20056;-65
2023/09/08 07:40:45;;;;;;;26.85;9.93;;;;;;;26.71;54.16;101042.13;5030088;28;20056;-64
2023/09/08 07:43:12;;;;;;;31.83;9.77;;;;;;;26.90;54.15;101043.63;5042759;28;20053;-66
2023/09/08 07:45:40;;;;;;;33.47;9.60;;;;;;;26.80;54.24;101036.03;5037026;28;20431;-65
2023/09/08 07:48:08;;;;;;;35.20;9.48;;;;;;;26.65;54.47;101043.78;5039800;28;20064;-64
2023/09/08 07:50:36;;;;;;;23.15;8.98;;;;;;;26.75;54.61;101044.94;5048265;28;20045;-65
2023/09/08 07:53:03;;;;;;;27.05;8.60;;;;;;;26.83;54.28;101041.66;5042695;28;20053;-64
2023/09/08 07:55:31;;;;;;;27.90;8.70;;;;;;;26.74;54.25;101043.34;5046999;28;20078;-64
2023/09/08 07:57:58;;;;;;;25.13;8.10;;;;;;;26.75;54.72;101048.56;5045245;28;20056;-64
2023/09/08 08:00:27;;;;;;;24.52;9.10;;;;;;;27.07;53.90;101049.13;5046616;28;20035;-63
2023/09/08 08:02:57;;;;;;;29.10;8.52;;;;;;;27.27;52.93;101041.66;5039727;28;20056;-65
2023/09/08 08:05:25;;;;;;;24.75;9.30;;;;;;;27.33;53.14;101045.69;5043519;28;20084;-64
2023/09/08 08:07:53;;;;;;;30.88;8.68;;;;;;;27.33;52.60;101039.22;5047052;28;20074;-64
2023/09/08 08:10:20;;;;;;;26.85;9.52;;;;;;;27.46;52.78;101038.25;5048732;28;20040;-64
2023/09/08 08:12:48;;;;;;;37.95;8.48;;;;;;;27.39;52.17;101041.16;5046711;28;20045;-65
2023/09/08 08:15:15;;;;;;;23.70;8.18;;;;;;;27.37;52.03;101045.66;5045575;28;20049;-65
2023/09/08 08:17:43;;;;;;;25.83;8.30;;;;;;;27.35;52.24;101048.91;5044954;28;20052;-64
2023/09/08 08:20:16;;;;;;;20.50;7.03;;;;;;;27.45;52.30;101045.16;5045025;28;20265;-65
2023/09/08 08:22:45;;;;;;;23.67;7.68;;;;;;;27.57;51.39;101047.44;5050425;28;20041;-64
2023/09/08 08:25:14;;;;;;;29.25;9.55;;;;;;;27.39;51.96;101046.81;5048827;28;20048;-64
2023/09/08 08:27:41;;;;;;;20.83;7.15;;;;;;;27.53;51.94;101043.06;5048348;28;20080;-64
2023/09/08 08:30:11;;;;;;;16.35;6.75;;;;;;;27.49;51.75;101048.75;5046220;28;20049;-65
2023/09/08 08:32:38;;;;;;;17.27;6.68;;;;;;;27.41;51.99;101055.69;5031750;28;20052;-65
2023/09/08 08:35:07;;;;;;;30.75;6.32;;;;;;;27.31;52.38;101059.44;5048609;28;20068;-67
2023/09/08 08:37:34;;;;;;;19.63;6.28;;;;;;;27.50;52.08;101063.69;5051542;28;20049;-65
2023/09/08 08:40:03;;;;;;;21.75;5.97;;;;;;;27.55;52.01;101058.38;5039841;28;20053;-65
2023/09/08 08:42:32;;;;;;;21.50;6.50;;;;;;;27.42;52.13;101065.00;5046757;28;20045;-66
2023/09/08 08:45:00;;;;;;;22.33;6.83;;;;;;;27.62;52.04;101052.66;5044909;28;20071;-64
2023/09/08 08:47:31;;;;;;;19.02;6.65;;;;;;;27.74;51.39;101059.78;5037573;28;20048;-63
2023/09/08 08:50:00;;;;;;;18.60;5.97;;;;;;;27.91;51.52;101063.66;5046477;28;20053;-66
2023/09/08 08:52:29;;;;;;;20.85;5.85;;;;;;;28.12;51.02;101064.22;5045092;28;20041;-65
2023/09/08 08:54:56;;;;;;;24.50;6.07;;;;;;;28.15;50.44;101060.53;5046314;28;20129;-66
2023/09/08 08:57:27;;;;;;;21.98;6.22;;;;;;;28.20;50.61;101054.38;5046087;28;20053;-65
2023/09/08 08:59:55;;;;;;;19.23;5.90;;;;;;;28.15;50.33;101057.69;5043500;28;20048;-65
2023/09/08 09:02:25;;;;;;;16.45;5.13;;;;;;;28.51;49.44;101064.50;5049867;28;20052;-65
2023/09/08 09:04:52;;;;;;;22.58;5.95;;;;;;;28.37;49.74;101073.19;5047022;28;20048;-65
2023/09/08 09:07:20;;;;;;;19.83;5.50;;;;;;;28.43;49.72;101062.16;5045959;28;20045;-65
2023/09/08 09:09:48;;;;;;;17.73;5.18;;;;;;;28.59;49.37;101065.22;5047239;28;20037;-65
2023/09/08 09:12:17;;;;;;;26.30;6.07;;;;;;;28.43;49.63;101062.16;5042309;28;20045;-66
2023/09/08 09:14:47;;;;;;;19.45;6.00;;;;;;;28.56;49.05;101061.19;5035807;28;20056;-65
2023/09/08 09:17:16;;;;;;;20.80;5.43;;;;;;;28.62;49.14;101061.50;5040007;28;20060;-67
2023/09/08 09:19:44;;;;;;;;;;;;;;;28.49;49.02;101063.28;5047971;28;20055;-67
2023/09/08 09:22:11;;;;;;;19.90;5.45;;;;;;;28.66;48.85;101057.38;5050631;28;19924;-66
2023/09/08 09:24:46;;;;;;;21.60;5.65;;;;;;;28.69;48.62;101058.56;5062498;28;20045;-65
2023/09/08 09:27:14;;;;;;;28.20;6.07;;;;;;;28.64;48.65;101054.19;5045853;28;20388;-69
2023/09/08 09:29:49;;;;;;;27.63;6.43;;;;;;;28.71;48.59;101058.94;5049521;28;20458;-69
2023/09/08 09:32:23;;;;;;;23.15;5.32;;;;;;;28.67;48.68;101059.00;5029919;28;20053;-69
2023/09/08 09:34:56;;;;;;;20.60;5.00;;;;;;;28.87;48.51;101050.59;5044594;28;20058;-68
2023/09/08 09:37:24;;;;;;;22.45;5.47;;;;;;;28.98;47.82;101053.25;5041631;28;20044;-69
2023/09/08 09:39:55;;;;;;;22.65;4.80;;;;;;;29.05;47.86;101053.09;5048226;28;20060;-70
2023/09/08 09:42:27;;;;;;;19.52;5.18;;;;;;;29.23;47.37;101053.66;5046449;28;20309;-68
2023/09/08 09:44:54;;;;;;;24.65;5.38;;;;;;;29.45;47.14;101058.50;5042377;28;20148;-69
2023/09/08 09:47:22;;;;;;;19.55;5.43;;;;;;;29.67;46.77;101050.38;5056427;28;20053;-69
2023/09/08 09:49:50;;;;;;;25.23;5.72;;;;;;;29.58;46.72;101050.97;5056798;28;20041;-68
2023/09/08 09:52:31;;;;;;;20.40;5.90;;;;;;;29.71;45.95;101053.97;5049909;28;20053;-68
2023/09/08 09:54:59;;;;;;;19.33;5.22;;;;;;;29.79;46.23;101046.94;5051466;28;20067;-68
2023/09/08 09:57:27;;;;;;;16.50;4.65;;;;;;;29.89;45.40;101048.75;5042421;28;20048;-69
2023/09/08 09:59:55;;;;;;;15.02;5.30;;;;;;;29.84;45.58;101043.56;5046728;28;20076;-70
2023/09/08 10:02:23;;;;;;;19.30;5.32;;;;;;;30.08;45.45;101044.28;5060234;28;20049;-69
2023/09/08 10:04:53;;;;;;;17.38;5.72;;;;;;;30.14;45.09;101043.34;5040097;28;20065;-70
2023/09/08 10:07:20;;;;;;;14.48;5.15;;;;;;;30.18;44.62;101040.44;5049425;28;20041;-69
2023/09/08 10:09:48;;;;;;;16.20;4.88;;;;;;;30.41;44.64;101046.00;5045846;28;20052;-69
2023/09/08 10:12:16;;;;;;;14.13;4.35;;;;;;;30.41;43.95;101046.00;5049472;28;20748;-68
2023/09/08 10:14:43;;;;;;;15.32;5.22;;;;;;;30.47;43.84;101053.59;5041988;28;20053;-69
2023/09/08 10:17:20;;;;;;;17.77;5.00;;;;;;;30.64;43.84;101046.69;5060539;28;20060;-69
2023/09/08 10:19:51;;;;;;;18.98;4.80;;;;;;;30.70;43.76;101041.28;5028325;28;20053;-69
2023/09/08 10:22:22;;;;;;;13.68;5.10;;;;;;;30.97;42.88;101039.00;5041711;28;20560;-68
2023/09/08 10:24:50;;;;;;;14.05;5.38;;;;;;;30.77;42.89;101044.72;5042997;28;21712;-69
2023/09/08 10:27:20;;;;;;;13.63;5.40;;;;;;;30.88;42.40;101045.31;5042350;28;20060;-69
2023/09/08 10:29:47;;;;;;;;;;;;;;;30.82;41.45;101049.13;5038277;28;20075;-69
2023/09/08 10:32:15;;;;;;;13.48;5.20;;;;;;;30.66;41.77;101044.19;5046805;28;19951;-69
2023/09/08 10:34:43;;;;;;;22.92;5.60;;;;;;;30.64;41.94;101043.84;5041863;28;20926;-70
2023/09/08 10:37:21;;;;;;;13.95;4.80;;;;;;;30.75;41.56;101043.59;5027495;28;20049;-69
2023/09/08 10:39:49;;;;;;;14.82;4.75;;;;;;;31.03;40.82;101040.06;5045249;28;20049;-70
2023/09/08 10:42:19;;;;;;;19.92;4.80;;;;;;;31.23;40.39;101039.94;5045272;28;20049;-69
2023/09/08 10:44:49;;;;;;;14.65;4.72;;;;;;;31.03;40.33;101045.75;5039936;28;20097;-69
2023/09/08 10:47:33;;;;;;;19.95;4.88;;;;;;;30.97;40.39;101053.22;5045867;28;20041;-70
2023/09/08 10:50:02;;;;;;;23.52;5.35;;;;;;;30.86;40.77;101042.09;5041500;28;20048;-69
2023/09/08 10:52:32;;;;;;;21.38;5.47;;;;;;;30.80;40.76;101034.53;5039382;28;20049;-70
2023/09/08 10:55:01;;;;;;;17.55;4.85;;;;;;;31.00;40.35;101038.09;5050084;28;20063;-69
2023/09/08 10:57:31;;;;;;;17.38;4.85;;;;;;;31.11;40.35;101037.81;5060008;28;20052;-70
2023/09/08 11:00:05;;;;;;;;;;;;;;;31.15;39.63;101019.41;5054462;28;20049;-69
2023/09/08 11:02:33;;;;;;;22.02;4.50;;;;;;;31.17;39.59;101030.34;5032068;28;20453;-69
2023/09/08 11:05:00;;;;;;;14.63;5.18;;;;;;;31.36;39.01;101024.56;5044219;28;20045;-68
2023/09/08 11:07:28;;;;;;;20.48;5.60;;;;;;;31.28;39.29;101017.44;5046569;28;20048;-71
2023/09/08 11:09:56;;;;;;;24.48;5.63;;;;;;;31.34;39.32;101015.69;5041146;28;20053;-70
2023/09/08 11:12:26;;;;;;;19.20;6.10;;;;;;;31.49;38.84;101021.75;5046223;28;20051;-69
2023/09/08 11:14:54;;;;;;;17.33;5.40;;;;;;;31.36;38.64;101015.22;5030225;28;20075;-68
2023/09/08 11:17:26;;;;;;;14.68;4.53;;;;;;;31.37;38.60;101009.09;5043818;28;20518;-68
2023/09/08 11:19:54;;;;;;;19.77;4.35;;;;;;;31.27;37.91;101015.03;5045195;28;20057;-71
2023/09/08 11:22:24;;;;;;;15.70;4.70;;;;;;;31.52;37.51;101018.81;5043791;28;20052;-71